sensor_id;sensor_type;location;lat;lon;timestamp;P1;durP1;ratioP1;P2;durP2;ratioP2
44694;SDS011;32845;59.422;17.930;2022-10-16T00:02:39;33.75;;;14.52;;
44694;SDS011;32845;59.422;17.930;2022-10-16T00:07:10;28.20;;;12.75;;
44694;SDS011;32845;59.422;17.930;2022-10-16T00:11:41;24.38;;;12.55;;
44694;SDS011;32845;59.422;17.930;2022-10-16T00:16:12;24.25;;;12.55;;
44694;SDS011;32845;59.422;17.930;2022-10-16T00:20:43;27.52;;;12.48;;
44694;SDS011;32845;59.422;17.930;2022-10-16T00:25:14;23.40;;;12.65;;
44694;SDS011;32845;59.422;17.930;2022-10-16T00:29:48;20.48;;;11.82;;
44694;SDS011;32845;59.422;17.930;2022-10-16T00:34:20;21.80;;;11.20;;
44694;SDS011;32845;59.422;17.930;2022-10-16T00:38:56;21.00;;;10.43;;
44694;SDS011;32845;59.422;17.930;2022-10-16T00:48:02;16.40;;;9.77;;
44694;SDS011;32845;59.422;17.930;2022-10-16T00:52:33;19.00;;;10.05;;
44694;SDS011;32845;59.422;17.930;2022-10-16T00:57:05;17.15;;;9.05;;
44694;SDS011;32845;59.422;17.930;2022-10-16T01:01:36;21.70;;;10.13;;
44694;SDS011;32845;59.422;17.930;2022-10-16T01:16:52;17.70;;;9.75;;
44694;SDS011;32845;59.422;17.930;2022-10-16T01:21:43;16.98;;;10.15;;
44694;SDS011;32845;59.422;17.930;2022-10-16T01:30:53;22.30;;;10.82;;
44694;SDS011;32845;59.422;17.930;2022-10-16T01:35:38;19.20;;;10.63;;
44694;SDS011;32845;59.422;17.930;2022-10-16T01:40:16;21.83;;;10.55;;
44694;SDS011;32845;59.422;17.930;2022-10-16T01:44:49;16.88;;;10.13;;
44694;SDS011;32845;59.422;17.930;2022-10-16T01:49:23;24.33;;;12.38;;
44694;SDS011;32845;59.422;17.930;2022-10-16T01:53:57;23.85;;;11.13;;
44694;SDS011;32845;59.422;17.930;2022-10-16T01:58:30;19.17;;;10.48;;
44694;SDS011;32845;59.422;17.930;2022-10-16T02:03:06;19.73;;;9.95;;
44694;SDS011;32845;59.422;17.930;2022-10-16T02:07:39;21.77;;;9.80;;
44694;SDS011;32845;59.422;17.930;2022-10-16T02:12:23;17.05;;;10.02;;
44694;SDS011;32845;59.422;17.930;2022-10-16T02:16:57;19.67;;;9.25;;
44694;SDS011;32845;59.422;17.930;2022-10-16T02:21:44;16.92;;;9.07;;
44694;SDS011;32845;59.422;17.930;2022-10-16T02:26:28;13.90;;;8.07;;
44694;SDS011;32845;59.422;17.930;2022-10-16T02:31:10;16.98;;;8.70;;
44694;SDS011;32845;59.422;17.930;2022-10-16T02:35:43;16.85;;;8.52;;
44694;SDS011;32845;59.422;17.930;2022-10-16T02:40:17;16.10;;;8.40;;
44694;SDS011;32845;59.422;17.930;2022-10-16T02:44:48;13.25;;;7.65;;
44694;SDS011;32845;59.422;17.930;2022-10-16T02:49:19;12.80;;;8.07;;
44694;SDS011;32845;59.422;17.930;2022-10-16T02:53:50;14.20;;;7.32;;
44694;SDS011;32845;59.422;17.930;2022-10-16T02:58:20;13.95;;;7.85;;
44694;SDS011;32845;59.422;17.930;2022-10-16T03:02:51;11.05;;;7.38;;
44694;SDS011;32845;59.422;17.930;2022-10-16T03:07:22;15.40;;;8.25;;
44694;SDS011;32845;59.422;17.930;2022-10-16T03:11:53;13.13;;;7.38;;
44694;SDS011;32845;59.422;17.930;2022-10-16T03:16:23;16.88;;;8.43;;
44694;SDS011;32845;59.422;17.930;2022-10-16T03:20:54;18.15;;;8.25;;
44694;SDS011;32845;59.422;17.930;2022-10-16T03:25:25;17.95;;;8.35;;
44694;SDS011;32845;59.422;17.930;2022-10-16T03:29:55;18.52;;;7.78;;
44694;SDS011;32845;59.422;17.930;2022-10-16T03:34:26;14.98;;;8.25;;
44694;SDS011;32845;59.422;17.930;2022-10-16T03:38:57;15.75;;;7.88;;
44694;SDS011;32845;59.422;17.930;2022-10-16T03:43:28;16.40;;;7.50;;
44694;SDS011;32845;59.422;17.930;2022-10-16T03:47:59;16.73;;;7.47;;
44694;SDS011;32845;59.422;17.930;2022-10-16T03:52:29;18.88;;;7.53;;
44694;SDS011;32845;59.422;17.930;2022-10-16T03:57:02;15.20;;;7.05;;
44694;SDS011;32845;59.422;17.930;2022-10-16T04:01:32;11.57;;;6.88;;
44694;SDS011;32845;59.422;17.930;2022-10-16T04:06:03;14.50;;;7.35;;
44694;SDS011;32845;59.422;17.930;2022-10-16T04:10:34;13.43;;;6.68;;
44694;SDS011;32845;59.422;17.930;2022-10-16T04:15:05;16.80;;;7.30;;
44694;SDS011;32845;59.422;17.930;2022-10-16T04:19:36;13.20;;;7.22;;
44694;SDS011;32845;59.422;17.930;2022-10-16T04:24:06;10.55;;;6.68;;
44694;SDS011;32845;59.422;17.930;2022-10-16T04:28:37;12.50;;;6.07;;
44694;SDS011;32845;59.422;17.930;2022-10-16T04:33:08;11.43;;;5.88;;
44694;SDS011;32845;59.422;17.930;2022-10-16T04:37:39;11.13;;;6.10;;
44694;SDS011;32845;59.422;17.930;2022-10-16T04:42:15;8.20;;;5.22;;
44694;SDS011;32845;59.422;17.930;2022-10-16T04:46:46;11.05;;;4.80;;
44694;SDS011;32845;59.422;17.930;2022-10-16T04:51:17;7.90;;;4.75;;
44694;SDS011;32845;59.422;17.930;2022-10-16T04:55:49;10.32;;;5.47;;
44694;SDS011;32845;59.422;17.930;2022-10-16T05:00:20;8.63;;;5.80;;
44694;SDS011;32845;59.422;17.930;2022-10-16T05:04:52;9.48;;;5.50;;
44694;SDS011;32845;59.422;17.930;2022-10-16T05:09:22;12.15;;;5.10;;
44694;SDS011;32845;59.422;17.930;2022-10-16T05:13:53;7.68;;;5.03;;
44694;SDS011;32845;59.422;17.930;2022-10-16T05:18:24;8.68;;;5.00;;
44694;SDS011;32845;59.422;17.930;2022-10-16T05:22:54;8.40;;;5.00;;
44694;SDS011;32845;59.422;17.930;2022-10-16T05:27:25;7.28;;;4.40;;
44694;SDS011;32845;59.422;17.930;2022-10-16T05:31:56;8.93;;;4.82;;
44694;SDS011;32845;59.422;17.930;2022-10-16T05:36:26;9.27;;;4.95;;
44694;SDS011;32845;59.422;17.930;2022-10-16T05:41:03;11.43;;;5.38;;
44694;SDS011;32845;59.422;17.930;2022-10-16T05:45:34;16.23;;;5.78;;
44694;SDS011;32845;59.422;17.930;2022-10-16T05:50:05;10.40;;;5.43;;
44694;SDS011;32845;59.422;17.930;2022-10-16T05:54:36;11.73;;;5.80;;
44694;SDS011;32845;59.422;17.930;2022-10-16T05:59:07;16.02;;;6.15;;
44694;SDS011;32845;59.422;17.930;2022-10-16T06:03:38;12.68;;;6.45;;
44694;SDS011;32845;59.422;17.930;2022-10-16T06:08:09;13.88;;;6.18;;
44694;SDS011;32845;59.422;17.930;2022-10-16T06:12:39;16.98;;;6.78;;
44694;SDS011;32845;59.422;17.930;2022-10-16T06:17:10;15.20;;;7.10;;
44694;SDS011;32845;59.422;17.930;2022-10-16T06:21:41;14.95;;;7.57;;
44694;SDS011;32845;59.422;17.930;2022-10-16T06:26:13;12.18;;;7.60;;
44694;SDS011;32845;59.422;17.930;2022-10-16T06:30:45;15.60;;;7.57;;
44694;SDS011;32845;59.422;17.930;2022-10-16T06:35:15;14.68;;;7.97;;
44694;SDS011;32845;59.422;17.930;2022-10-16T06:39:46;18.88;;;8.23;;
44694;SDS011;32845;59.422;17.930;2022-10-16T06:44:17;14.57;;;8.52;;
44694;SDS011;32845;59.422;17.930;2022-10-16T06:48:48;12.45;;;8.07;;
44694;SDS011;32845;59.422;17.930;2022-10-16T06:53:18;18.55;;;8.15;;
44694;SDS011;32845;59.422;17.930;2022-10-16T06:57:49;20.58;;;8.88;;
44694;SDS011;32845;59.422;17.930;2022-10-16T07:02:30;20.88;;;8.13;;
44694;SDS011;32845;59.422;17.930;2022-10-16T07:07:00;11.27;;;8.05;;
44694;SDS011;32845;59.422;17.930;2022-10-16T07:11:37;13.35;;;7.80;;
44694;SDS011;32845;59.422;17.930;2022-10-16T07:20:43;15.55;;;8.18;;
44694;SDS011;32845;59.422;17.930;2022-10-16T07:25:14;13.30;;;8.00;;
44694;SDS011;32845;59.422;17.930;2022-10-16T07:29:44;12.82;;;7.03;;
44694;SDS011;32845;59.422;17.930;2022-10-16T07:34:16;18.23;;;8.13;;
44694;SDS011;32845;59.422;17.930;2022-10-16T07:38:47;18.17;;;6.65;;
44694;SDS011;32845;59.422;17.930;2022-10-16T07:43:18;12.25;;;6.40;;
44694;SDS011;32845;59.422;17.930;2022-10-16T07:47:49;15.30;;;7.28;;
44694;SDS011;32845;59.422;17.930;2022-10-16T07:52:19;13.70;;;6.05;;
44694;SDS011;32845;59.422;17.930;2022-10-16T07:56:50;9.20;;;5.47;;
44694;SDS011;32845;59.422;17.930;2022-10-16T08:01:26;12.63;;;4.68;;
44694;SDS011;32845;59.422;17.930;2022-10-16T08:05:57;8.98;;;4.05;;
44694;SDS011;32845;59.422;17.930;2022-10-16T08:10:29;8.18;;;4.30;;
44694;SDS011;32845;59.422;17.930;2022-10-16T08:15:00;9.63;;;3.65;;
44694;SDS011;32845;59.422;17.930;2022-10-16T08:19:35;9.70;;;3.65;;
44694;SDS011;32845;59.422;17.930;2022-10-16T08:24:06;9.35;;;4.00;;
44694;SDS011;32845;59.422;17.930;2022-10-16T08:28:37;7.10;;;3.70;;
44694;SDS011;32845;59.422;17.930;2022-10-16T08:33:08;8.00;;;3.90;;
44694;SDS011;32845;59.422;17.930;2022-10-16T08:37:39;9.05;;;3.72;;
44694;SDS011;32845;59.422;17.930;2022-10-16T08:52:24;9.63;;;3.60;;
44694;SDS011;32845;59.422;17.930;2022-10-16T08:57:19;4.28;;;3.08;;
44694;SDS011;32845;59.422;17.930;2022-10-16T09:01:51;6.10;;;3.38;;
44694;SDS011;32845;59.422;17.930;2022-10-16T09:12:03;7.38;;;3.10;;
44694;SDS011;32845;59.422;17.930;2022-10-16T09:16:36;8.80;;;3.30;;
44694;SDS011;32845;59.422;17.930;2022-10-16T09:21:20;12.30;;;3.95;;
44694;SDS011;32845;59.422;17.930;2022-10-16T09:25:55;5.68;;;2.85;;
44694;SDS011;32845;59.422;17.930;2022-10-16T09:30:28;6.45;;;2.60;;
44694;SDS011;32845;59.422;17.930;2022-10-16T09:34:59;6.78;;;2.63;;
44694;SDS011;32845;59.422;17.930;2022-10-16T09:39:41;5.72;;;2.40;;
44694;SDS011;32845;59.422;17.930;2022-10-16T09:48:55;7.97;;;2.15;;
44694;SDS011;32845;59.422;17.930;2022-10-16T09:53:37;6.05;;;2.30;;
44694;SDS011;32845;59.422;17.930;2022-10-16T09:58:15;3.28;;;1.73;;
44694;SDS011;32845;59.422;17.930;2022-10-16T10:02:47;3.92;;;2.00;;
44694;SDS011;32845;59.422;17.930;2022-10-16T10:07:19;5.30;;;1.52;;
44694;SDS011;32845;59.422;17.930;2022-10-16T10:11:58;9.10;;;1.60;;
44694;SDS011;32845;59.422;17.930;2022-10-16T10:16:31;6.75;;;1.83;;
44694;SDS011;32845;59.422;17.930;2022-10-16T10:21:02;5.43;;;1.33;;
44694;SDS011;32845;59.422;17.930;2022-10-16T10:25:38;6.90;;;1.83;;
44694;SDS011;32845;59.422;17.930;2022-10-16T10:40:02;5.70;;;1.75;;
44694;SDS011;32845;59.422;17.930;2022-10-16T11:00:03;2.88;;;1.52;;
44694;SDS011;32845;59.422;17.930;2022-10-16T11:05:08;3.47;;;1.52;;
44694;SDS011;32845;59.422;17.930;2022-10-16T11:09:56;8.18;;;2.17;;
44694;SDS011;32845;59.422;17.930;2022-10-16T11:19:28;7.50;;;1.63;;
44694;SDS011;32845;59.422;17.930;2022-10-16T11:24:22;6.05;;;1.60;;
44694;SDS011;32845;59.422;17.930;2022-10-16T11:29:00;6.45;;;2.28;;
44694;SDS011;32845;59.422;17.930;2022-10-16T11:43:12;21.90;;;4.15;;
44694;SDS011;32845;59.422;17.930;2022-10-16T11:47:48;9.00;;;1.92;;
44694;SDS011;32845;59.422;17.930;2022-10-16T11:52:40;9.35;;;1.92;;
44694;SDS011;32845;59.422;17.930;2022-10-16T11:57:24;7.32;;;1.83;;
44694;SDS011;32845;59.422;17.930;2022-10-16T12:02:14;4.63;;;1.40;;
44694;SDS011;32845;59.422;17.930;2022-10-16T12:07:02;13.77;;;1.65;;
44694;SDS011;32845;59.422;17.930;2022-10-16T12:11:39;7.95;;;1.83;;
44694;SDS011;32845;59.422;17.930;2022-10-16T12:20:44;7.25;;;1.75;;
44694;SDS011;32845;59.422;17.930;2022-10-16T12:25:39;4.45;;;1.65;;
44694;SDS011;32845;59.422;17.930;2022-10-16T12:30:20;6.13;;;1.60;;
44694;SDS011;32845;59.422;17.930;2022-10-16T12:34:53;6.55;;;1.92;;
44694;SDS011;32845;59.422;17.930;2022-10-16T12:39:24;6.63;;;1.55;;
44694;SDS011;32845;59.422;17.930;2022-10-16T12:43:57;6.15;;;1.60;;
44694;SDS011;32845;59.422;17.930;2022-10-16T12:48:31;5.13;;;1.75;;
44694;SDS011;32845;59.422;17.930;2022-10-16T12:53:03;6.05;;;1.38;;
44694;SDS011;32845;59.422;17.930;2022-10-16T13:26:39;6.40;;;1.90;;
44694;SDS011;32845;59.422;17.930;2022-10-16T13:31:20;4.20;;;1.65;;
44694;SDS011;32845;59.422;17.930;2022-10-16T13:35:55;6.05;;;1.67;;
44694;SDS011;32845;59.422;17.930;2022-10-16T13:40:26;5.25;;;1.42;;
44694;SDS011;32845;59.422;17.930;2022-10-16T13:44:57;5.93;;;1.92;;
44694;SDS011;32845;59.422;17.930;2022-10-16T13:49:28;6.07;;;1.30;;
44694;SDS011;32845;59.422;17.930;2022-10-16T13:53:58;8.32;;;1.65;;
44694;SDS011;32845;59.422;17.930;2022-10-16T13:58:29;8.43;;;1.98;;
44694;SDS011;32845;59.422;17.930;2022-10-16T14:03:01;5.78;;;1.40;;
44694;SDS011;32845;59.422;17.930;2022-10-16T14:07:34;2.08;;;0.75;;
44694;SDS011;32845;59.422;17.930;2022-10-16T14:12:13;4.82;;;1.20;;
44694;SDS011;32845;59.422;17.930;2022-10-16T14:16:44;6.30;;;2.53;;
44694;SDS011;32845;59.422;17.930;2022-10-16T14:21:16;4.63;;;1.10;;
44694;SDS011;32845;59.422;17.930;2022-10-16T14:25:48;5.72;;;1.02;;
44694;SDS011;32845;59.422;17.930;2022-10-16T14:30:20;4.43;;;1.08;;
44694;SDS011;32845;59.422;17.930;2022-10-16T14:34:53;5.60;;;1.23;;
44694;SDS011;32845;59.422;17.930;2022-10-16T14:39:24;4.00;;;1.42;;
44694;SDS011;32845;59.422;17.930;2022-10-16T14:43:56;6.78;;;1.67;;
44694;SDS011;32845;59.422;17.930;2022-10-16T14:48:32;3.63;;;1.33;;
44694;SDS011;32845;59.422;17.930;2022-10-16T14:53:12;3.03;;;0.90;;
44694;SDS011;32845;59.422;17.930;2022-10-16T14:57:43;4.32;;;1.23;;
44694;SDS011;32845;59.422;17.930;2022-10-16T15:02:20;8.75;;;1.30;;
44694;SDS011;32845;59.422;17.930;2022-10-16T15:06:56;7.55;;;2.13;;
44694;SDS011;32845;59.422;17.930;2022-10-16T15:11:27;4.90;;;1.67;;
44694;SDS011;32845;59.422;17.930;2022-10-16T15:15:58;10.27;;;2.28;;
44694;SDS011;32845;59.422;17.930;2022-10-16T15:20:29;8.25;;;2.60;;
44694;SDS011;32845;59.422;17.930;2022-10-16T15:25:09;7.10;;;2.08;;
44694;SDS011;32845;59.422;17.930;2022-10-16T15:30:00;3.35;;;1.23;;
44694;SDS011;32845;59.422;17.930;2022-10-16T15:34:31;5.07;;;1.30;;
44694;SDS011;32845;59.422;17.930;2022-10-16T15:39:06;6.15;;;0.98;;
44694;SDS011;32845;59.422;17.930;2022-10-16T15:43:45;4.78;;;0.68;;
44694;SDS011;32845;59.422;17.930;2022-10-16T15:48:18;3.47;;;0.70;;
44694;SDS011;32845;59.422;17.930;2022-10-16T15:52:49;2.13;;;0.70;;
44694;SDS011;32845;59.422;17.930;2022-10-16T15:57:21;3.63;;;0.95;;
44694;SDS011;32845;59.422;17.930;2022-10-16T16:01:51;8.75;;;1.00;;
44694;SDS011;32845;59.422;17.930;2022-10-16T16:06:22;4.68;;;1.30;;
44694;SDS011;32845;59.422;17.930;2022-10-16T16:11:01;3.85;;;0.68;;
44694;SDS011;32845;59.422;17.930;2022-10-16T16:15:33;2.80;;;0.57;;
44694;SDS011;32845;59.422;17.930;2022-10-16T16:20:09;2.75;;;0.60;;
44694;SDS011;32845;59.422;17.930;2022-10-16T16:24:41;4.38;;;0.63;;
44694;SDS011;32845;59.422;17.930;2022-10-16T16:29:12;2.25;;;0.77;;
44694;SDS011;32845;59.422;17.930;2022-10-16T16:33:44;4.90;;;0.63;;
44694;SDS011;32845;59.422;17.930;2022-10-16T16:38:15;3.13;;;0.77;;
44694;SDS011;32845;59.422;17.930;2022-10-16T16:42:47;3.38;;;0.50;;
44694;SDS011;32845;59.422;17.930;2022-10-16T16:47:19;2.50;;;1.05;;
44694;SDS011;32845;59.422;17.930;2022-10-16T16:51:49;9.55;;;0.70;;
44694;SDS011;32845;59.422;17.930;2022-10-16T16:56:20;2.25;;;0.40;;
44694;SDS011;32845;59.422;17.930;2022-10-16T17:00:53;3.50;;;0.47;;
44694;SDS011;32845;59.422;17.930;2022-10-16T17:05:23;1.70;;;0.30;;
44694;SDS011;32845;59.422;17.930;2022-10-16T17:09:55;0.75;;;0.35;;
44694;SDS011;32845;59.422;17.930;2022-10-16T17:14:26;3.15;;;0.93;;
44694;SDS011;32845;59.422;17.930;2022-10-16T17:19:00;2.00;;;1.20;;
44694;SDS011;32845;59.422;17.930;2022-10-16T17:23:32;1.02;;;0.60;;
44694;SDS011;32845;59.422;17.930;2022-10-16T17:28:04;2.00;;;0.47;;
44694;SDS011;32845;59.422;17.930;2022-10-16T17:32:35;1.67;;;0.30;;
44694;SDS011;32845;59.422;17.930;2022-10-16T17:37:06;3.40;;;0.50;;
44694;SDS011;32845;59.422;17.930;2022-10-16T17:41:37;0.65;;;0.20;;
44694;SDS011;32845;59.422;17.930;2022-10-16T17:46:09;1.63;;;0.65;;
44694;SDS011;32845;59.422;17.930;2022-10-16T17:50:41;1.77;;;0.40;;
44694;SDS011;32845;59.422;17.930;2022-10-16T17:55:12;4.88;;;0.30;;
44694;SDS011;32845;59.422;17.930;2022-10-16T17:59:43;0.57;;;0.20;;
44694;SDS011;32845;59.422;17.930;2022-10-16T18:04:14;0.73;;;0.10;;
44694;SDS011;32845;59.422;17.930;2022-10-16T18:08:46;2.53;;;0.30;;
44694;SDS011;32845;59.422;17.930;2022-10-16T18:13:16;6.20;;;0.47;;
44694;SDS011;32845;59.422;17.930;2022-10-16T18:17:47;5.28;;;0.32;;
44694;SDS011;32845;59.422;17.930;2022-10-16T18:22:18;3.47;;;0.50;;
44694;SDS011;32845;59.422;17.930;2022-10-16T18:26:49;5.03;;;0.50;;
44694;SDS011;32845;59.422;17.930;2022-10-16T18:31:32;1.10;;;0.52;;
44694;SDS011;32845;59.422;17.930;2022-10-16T18:36:03;4.10;;;0.60;;
44694;SDS011;32845;59.422;17.930;2022-10-16T18:45:34;2.78;;;0.30;;
44694;SDS011;32845;59.422;17.930;2022-10-16T18:50:05;3.47;;;0.63;;
44694;SDS011;32845;59.422;17.930;2022-10-16T18:54:36;3.85;;;0.70;;
44694;SDS011;32845;59.422;17.930;2022-10-16T18:59:12;5.57;;;0.70;;
44694;SDS011;32845;59.422;17.930;2022-10-16T19:03:43;7.20;;;0.70;;
44694;SDS011;32845;59.422;17.930;2022-10-16T19:08:13;12.80;;;0.93;;
44694;SDS011;32845;59.422;17.930;2022-10-16T19:12:44;9.18;;;1.15;;
44694;SDS011;32845;59.422;17.930;2022-10-16T19:17:15;5.05;;;1.08;;
44694;SDS011;32845;59.422;17.930;2022-10-16T19:21:46;10.82;;;1.20;;
44694;SDS011;32845;59.422;17.930;2022-10-16T19:26:25;5.13;;;1.10;;
44694;SDS011;32845;59.422;17.930;2022-10-16T19:31:14;8.85;;;0.82;;
44694;SDS011;32845;59.422;17.930;2022-10-16T19:35:47;8.77;;;0.95;;
44694;SDS011;32845;59.422;17.930;2022-10-16T19:40:18;4.65;;;0.98;;
44694;SDS011;32845;59.422;17.930;2022-10-16T19:44:49;8.77;;;1.10;;
44694;SDS011;32845;59.422;17.930;2022-10-16T19:49:19;11.30;;;0.95;;
44694;SDS011;32845;59.422;17.930;2022-10-16T19:53:55;9.32;;;1.52;;
44694;SDS011;32845;59.422;17.930;2022-10-16T19:58:36;17.23;;;1.25;;
44694;SDS011;32845;59.422;17.930;2022-10-16T20:03:21;6.55;;;1.50;;
44694;SDS011;32845;59.422;17.930;2022-10-16T20:07:51;9.45;;;1.30;;
44694;SDS011;32845;59.422;17.930;2022-10-16T20:12:22;12.55;;;1.10;;
44694;SDS011;32845;59.422;17.930;2022-10-16T20:16:53;11.77;;;1.23;;
44694;SDS011;32845;59.422;17.930;2022-10-16T20:21:26;15.35;;;1.42;;
44694;SDS011;32845;59.422;17.930;2022-10-16T20:25:59;13.50;;;1.33;;
44694;SDS011;32845;59.422;17.930;2022-10-16T20:30:48;9.48;;;1.23;;
44694;SDS011;32845;59.422;17.930;2022-10-16T20:35:19;13.07;;;1.08;;
44694;SDS011;32845;59.422;17.930;2022-10-16T20:39:50;11.30;;;1.15;;
44694;SDS011;32845;59.422;17.930;2022-10-16T20:44:21;10.68;;;1.15;;
44694;SDS011;32845;59.422;17.930;2022-10-16T20:48:52;10.23;;;1.17;;
44694;SDS011;32845;59.422;17.930;2022-10-16T20:53:23;5.53;;;1.10;;
44694;SDS011;32845;59.422;17.930;2022-10-16T20:57:54;4.78;;;0.80;;
44694;SDS011;32845;59.422;17.930;2022-10-16T21:02:25;13.27;;;1.48;;
44694;SDS011;32845;59.422;17.930;2022-10-16T21:06:55;6.68;;;1.20;;
44694;SDS011;32845;59.422;17.930;2022-10-16T21:11:26;4.13;;;0.73;;
44694;SDS011;32845;59.422;17.930;2022-10-16T21:15:58;4.00;;;0.80;;
44694;SDS011;32845;59.422;17.930;2022-10-16T21:20:31;7.43;;;0.93;;
44694;SDS011;32845;59.422;17.930;2022-10-16T21:25:01;7.93;;;0.95;;
44694;SDS011;32845;59.422;17.930;2022-10-16T21:29:47;9.65;;;0.93;;
44694;SDS011;32845;59.422;17.930;2022-10-16T21:34:18;12.23;;;0.82;;
44694;SDS011;32845;59.422;17.930;2022-10-16T21:38:49;13.75;;;1.08;;
44694;SDS011;32845;59.422;17.930;2022-10-16T21:43:20;8.63;;;1.15;;
44694;SDS011;32845;59.422;17.930;2022-10-16T21:47:50;5.65;;;1.17;;
44694;SDS011;32845;59.422;17.930;2022-10-16T21:52:21;7.35;;;0.73;;
44694;SDS011;32845;59.422;17.930;2022-10-16T21:56:52;10.52;;;1.40;;
44694;SDS011;32845;59.422;17.930;2022-10-16T22:01:28;9.73;;;1.45;;
44694;SDS011;32845;59.422;17.930;2022-10-16T22:06:03;5.40;;;0.60;;
44694;SDS011;32845;59.422;17.930;2022-10-16T22:10:40;7.75;;;0.88;;
44694;SDS011;32845;59.422;17.930;2022-10-16T22:15:12;4.28;;;0.60;;
44694;SDS011;32845;59.422;17.930;2022-10-16T22:19:42;10.23;;;0.82;;
44694;SDS011;32845;59.422;17.930;2022-10-16T22:24:13;3.78;;;0.50;;
44694;SDS011;32845;59.422;17.930;2022-10-16T22:28:45;9.00;;;0.88;;
44694;SDS011;32845;59.422;17.930;2022-10-16T22:33:21;7.30;;;0.93;;
44694;SDS011;32845;59.422;17.930;2022-10-16T22:37:51;9.88;;;1.25;;
44694;SDS011;32845;59.422;17.930;2022-10-16T22:42:22;9.85;;;0.88;;
44694;SDS011;32845;59.422;17.930;2022-10-16T22:46:53;5.75;;;0.65;;
44694;SDS011;32845;59.422;17.930;2022-10-16T22:51:33;10.70;;;2.90;;
44694;SDS011;32845;59.422;17.930;2022-10-16T22:56:03;12.27;;;1.48;;
44694;SDS011;32845;59.422;17.930;2022-10-16T23:00:43;15.77;;;1.10;;
44694;SDS011;32845;59.422;17.930;2022-10-16T23:05:14;7.03;;;1.00;;
44694;SDS011;32845;59.422;17.930;2022-10-16T23:10:00;8.20;;;0.90;;
44694;SDS011;32845;59.422;17.930;2022-10-16T23:14:31;7.30;;;0.70;;
44694;SDS011;32845;59.422;17.930;2022-10-16T23:19:02;5.57;;;0.65;;
44694;SDS011;32845;59.422;17.930;2022-10-16T23:23:36;12.32;;;0.80;;
44694;SDS011;32845;59.422;17.930;2022-10-16T23:28:07;16.33;;;0.75;;
44694;SDS011;32845;59.422;17.930;2022-10-16T23:32:48;8.40;;;0.80;;
44694;SDS011;32845;59.422;17.930;2022-10-16T23:37:19;9.40;;;0.85;;
44694;SDS011;32845;59.422;17.930;2022-10-16T23:41:49;4.95;;;0.60;;
44694;SDS011;32845;59.422;17.930;2022-10-16T23:46:20;8.32;;;0.80;;
44694;SDS011;32845;59.422;17.930;2022-10-16T23:50:51;14.07;;;1.58;;
44694;SDS011;32845;59.422;17.930;2022-10-16T23:55:22;3.78;;;0.50;;
